Time;durP1;ratioP1;P1;durP2;ratioP2;P2;SDS_P1;SDS_P2;PMS_P1;PMS_P2;Temp;Humidity;BMP_temperature;BMP_pressure;BME280_temperature;BME280_humidity;BME280_pressure;Samples;Min_cycle;Max_cycle;Signal;HPM_P1;HPM_P2
2022/09/15 00:00:12;;;;;;;0.40;0.40;;;16.90;99.90;;;;;;5016623;28;20449;-71
2022/09/15 00:02:38;;;;;;;0.30;0.30;;;16.80;99.90;;;;;;5016735;28;20808;-70
2022/09/15 00:05:05;;;;;;;0.60;0.60;;;16.70;99.90;;;;;;5016972;28;20413;-71
2022/09/15 00:07:30;;;;;;;0.30;0.30;;;16.70;99.90;;;;;;5016913;28;20538;-71
2022/09/15 00:09:56;;;;;;;0.50;0.50;;;16.70;99.90;;;;;;5015115;28;20434;-72
2022/09/15 00:12:22;;;;;;;0.50;0.50;;;16.70;99.90;;;;;;5016524;28;20234;-71
2022/09/15 00:14:51;;;;;;;0.40;0.40;;;16.70;99.90;;;;;;5016614;28;20429;-70
2022/09/15 00:17:17;;;;;;;0.40;0.40;;;16.60;99.90;;;;;;5013811;28;20640;-71
2022/09/15 00:19:43;;;;;;;0.30;0.30;;;16.70;99.90;;;;;;5014657;28;20426;-70
2022/09/15 00:22:08;;;;;;;0.40;0.40;;;16.50;99.90;;;;;;5015802;28;20170;-70
2022/09/15 00:24:34;;;;;;;0.43;0.43;;;16.50;99.90;;;;;;5016638;28;20229;-70
2022/09/15 00:27:00;;;;;;;0.30;0.30;;;16.50;99.90;;;;;;5015301;28;20178;-71
2022/09/15 00:29:26;;;;;;;0.30;0.30;;;16.50;99.90;;;;;;5016194;28;20797;-70
2022/09/15 00:31:52;;;;;;;0.50;0.50;;;16.50;99.90;;;;;;5016107;28;20183;-71
2022/09/15 00:34:17;;;;;;;0.47;0.47;;;16.50;99.90;;;;;;5016489;28;20211;-71
2022/09/15 00:36:44;;;;;;;1.13;1.03;;;;;;;;;;5016454;28;20541;-71
2022/09/15 00:39:09;;;;;;;0.40;0.40;;;16.60;99.90;;;;;;5016034;28;20198;-71
2022/09/15 00:41:37;;;;;;;0.40;0.40;;;16.50;99.90;;;;;;5016154;28;20872;-70
2022/09/15 00:44:04;;;;;;;0.30;0.30;;;16.50;99.90;;;;;;5014887;28;20724;-71
2022/09/15 00:46:37;;;;;;;0.37;0.37;;;16.40;99.90;;;;;;5016256;28;20429;-71
2022/09/15 00:49:12;;;;;;;0.30;0.30;;;16.40;99.90;;;;;;5015883;28;20438;-69
2022/09/15 00:52:07;;;;;;;0.40;0.40;;;16.40;99.90;;;;;;5015995;28;20400;-70
2022/09/15 00:54:48;;;;;;;0.30;0.30;;;16.40;99.90;;;;;;5016109;28;20394;-71
2022/09/15 00:57:24;;;;;;;0.50;0.50;;;16.30;99.90;;;;;;5016041;28;20460;-71
2022/09/15 00:59:51;;;;;;;0.30;0.30;;;16.70;99.90;;;;;;5015689;28;20437;-70
2022/09/15 01:02:31;;;;;;;3.13;0.60;;;16.10;99.90;;;;;;5016000;28;20414;-71
2022/09/15 01:04:58;;;;;;;0.40;0.40;;;16.00;99.90;;;;;;5015906;28;20505;-72
2022/09/15 01:07:37;;;;;;;0.33;0.33;;;15.90;99.90;;;;;;5015508;28;20408;-71
2022/09/15 01:10:11;;;;;;;0.50;0.50;;;15.90;99.90;;;;;;5015619;28;20807;-70
2022/09/15 01:12:39;;;;;;;0.50;0.50;;;15.90;99.90;;;;;;5015728;28;20738;-71
2022/09/15 01:15:05;;;;;;;0.60;0.60;;;16.00;99.90;;;;;;5015410;28;20824;-71
2022/09/15 01:17:52;;;;;;;0.67;0.50;;;15.90;99.90;;;;;;5015836;28;20405;-71
2022/09/15 01:20:31;;;;;;;0.40;0.40;;;16.00;99.90;;;;;;5015246;28;20418;-71
2022/09/15 01:23:05;;;;;;;0.40;0.40;;;16.10;99.90;;;;;;5015551;28;20495;-71
2022/09/15 01:26:05;;;;;;;0.30;0.30;;;16.10;99.90;;;;;;5015504;28;20407;-71
2022/09/15 01:28:52;;;;;;;0.40;0.40;;;16.10;99.90;;;;;;5015528;28;20428;-71
2022/09/15 01:34:43;;;;;;;0.90;0.90;;;16.20;99.90;;;;;;5015227;28;20767;-71
2022/09/15 01:37:16;;;;;;;0.40;0.40;;;16.20;99.90;;;;;;5015187;28;20417;-71
2022/09/15 01:39:45;;;;;;;0.30;0.30;;;16.40;99.90;;;;;;5014903;28;20422;-70
2022/09/15 01:42:14;;;;;;;0.60;0.60;;;16.20;99.90;;;;;;5015127;28;20492;-70
2022/09/15 01:44:50;;;;;;;0.40;0.40;;;16.40;99.90;;;;;;5014371;28;20453;-69
2022/09/15 01:47:18;;;;;;;0.47;0.47;;;16.30;99.90;;;;;;5014993;28;20408;-72
2022/09/15 01:50:10;;;;;;;0.50;0.50;;;16.60;99.90;;;;;;5014703;28;20425;-71
2022/09/15 01:52:42;;;;;;;1.53;0.67;;;16.40;99.90;;;;;;5010897;28;20910;-70
2022/09/15 01:55:14;;;;;;;0.40;0.40;;;16.40;99.90;;;;;;5014808;28;20405;-71
2022/09/15 01:57:40;;;;;;;0.60;0.60;;;16.30;99.90;;;;;;5014749;28;20441;-70
2022/09/15 02:00:07;;;;;;;0.60;0.60;;;16.40;99.90;;;;;;5014513;28;20434;-71
2022/09/15 02:02:43;;;;;;;0.30;0.30;;;16.40;99.90;;;;;;5014690;28;20177;-71
2022/09/15 02:05:19;;;;;;;0.30;0.30;;;16.80;99.90;;;;;;5014612;28;20934;-71
2022/09/15 02:08:04;;;;;;;0.83;0.70;;;16.30;99.90;;;;;;5013049;28;20989;-71
2022/09/15 02:10:52;;;;;;;0.30;0.30;;;16.60;99.90;;;;;;5014415;28;20395;-70
2022/09/15 02:13:37;;;;;;;0.30;0.30;;;16.60;99.90;;;;;;5014655;28;20886;-72
2022/09/15 02:16:11;;;;;;;0.40;0.40;;;16.60;99.90;;;;;;5014643;28;20506;-70
2022/09/15 02:18:45;;;;;;;0.50;0.40;;;16.60;99.90;;;;;;5014585;28;20440;-71
2022/09/15 02:21:17;;;;;;;0.50;0.50;;;16.60;99.90;;;;;;5014291;28;20910;-70
2022/09/15 02:23:52;;;;;;;0.30;0.30;;;16.60;99.90;;;;;;5014444;28;20453;-70
2022/09/15 02:26:23;;;;;;;0.30;0.30;;;16.60;99.90;;;;;;5014243;28;20497;-72
2022/09/15 02:28:51;;;;;;;0.47;0.47;;;16.70;99.90;;;;;;5014174;28;20517;-71
2022/09/15 02:31:20;;;;;;;0.40;0.40;;;16.70;99.90;;;;;;5014046;28;20407;-71
2022/09/15 02:33:56;;;;;;;0.30;0.30;;;16.60;99.90;;;;;;5014246;28;20418;-70
2022/09/15 02:36:24;;;;;;;0.40;0.40;;;16.50;99.90;;;;;;5014252;28;20416;-70
2022/09/15 02:38:56;;;;;;;0.30;0.30;;;16.60;99.90;;;;;;5013952;28;20453;-70
2022/09/15 02:41:22;;;;;;;2.53;0.43;;;16.60;99.90;;;;;;5013928;28;20440;-71
2022/09/15 02:43:49;;;;;;;0.30;0.30;;;16.60;99.90;;;;;;5014144;28;20868;-71
2022/09/15 02:46:17;;;;;;;0.50;0.50;;;16.70;99.90;;;;;;5014077;28;20263;-71
2022/09/15 02:48:43;;;;;;;0.50;0.50;;;;;;;;;;5013917;28;20439;-70
2022/09/15 02:51:09;;;;;;;0.40;0.40;;;16.70;99.90;;;;;;5013665;28;20901;-71
2022/09/15 02:53:35;;;;;;;0.47;0.47;;;16.70;99.90;;;;;;5013882;28;20456;-70
2022/09/15 02:56:04;;;;;;;0.60;0.60;;;17.10;99.90;;;;;;5013049;28;20202;-70
2022/09/15 02:58:30;;;;;;;0.40;0.40;;;16.80;99.90;;;;;;5013967;28;20439;-70
2022/09/15 03:00:56;;;;;;;0.40;0.40;;;16.80;99.90;;;;;;5013635;28;20414;-71
2022/09/15 03:03:23;;;;;;;0.30;0.30;;;16.70;99.90;;;;;;5013627;28;20290;-71
2022/09/15 03:05:48;;;;;;;0.70;0.70;;;16.60;99.90;;;;;;5013717;28;20497;-69
2022/09/15 03:08:14;;;;;;;0.60;0.60;;;16.60;99.90;;;;;;5013697;28;20509;-70
2022/09/15 03:10:40;;;;;;;0.30;0.30;;;16.70;99.90;;;;;;5013582;28;20624;-70
2022/09/15 03:13:06;;;;;;;0.40;0.40;;;16.60;99.90;;;;;;5013785;28;20175;-71
2022/09/15 03:15:32;;;;;;;0.33;0.33;;;16.60;99.90;;;;;;5013684;28;20198;-71
2022/09/15 03:17:58;;;;;;;1.67;0.40;;;16.60;99.90;;;;;;5013589;28;20435;-70
2022/09/15 03:20:27;;;;;;;0.67;0.67;;;16.60;99.90;;;;;;5013422;28;20174;-70
2022/09/15 03:22:53;;;;;;;0.40;0.40;;;16.40;99.90;;;;;;5013527;28;21003;-70
2022/09/15 03:25:19;;;;;;;0.60;0.60;;;;;;;;;;5013748;28;20497;-69
2022/09/15 03:27:45;;;;;;;0.40;0.40;;;16.20;99.90;;;;;;5013570;28;20406;-70
2022/09/15 03:30:12;;;;;;;0.40;0.40;;;16.40;99.90;;;;;;5013354;28;20460;-72
2022/09/15 03:32:38;;;;;;;0.97;0.57;;;16.50;99.90;;;;;;5013519;28;20434;-72
2022/09/15 03:35:05;;;;;;;0.40;0.40;;;16.50;99.90;;;;;;5013677;28;20913;-71
2022/09/15 03:37:31;;;;;;;0.40;0.40;;;16.40;99.90;;;;;;5013496;28;20195;-71
2022/09/15 03:39:57;;;;;;;0.30;0.30;;;16.30;99.90;;;;;;5013187;28;20440;-70
2022/09/15 03:42:23;;;;;;;0.30;0.30;;;16.30;99.90;;;;;;5013357;28;20402;-72
2022/09/15 03:44:48;;;;;;;0.60;0.50;;;16.30;99.90;;;;;;5013498;28;20207;-70
2022/09/15 03:47:14;;;;;;;0.60;0.40;;;;;;;;;;5013542;28;20604;-70
2022/09/15 03:49:40;;;;;;;0.50;0.40;;;16.90;99.90;;;;;;5013066;28;20199;-71
2022/09/15 03:52:05;;;;;;;0.53;0.53;;;16.20;99.90;;;;;;5013351;28;20504;-70
2022/09/15 03:54:31;;;;;;;0.40;0.40;;;16.20;99.90;;;;;;5013398;28;20203;-71
2022/09/15 03:56:57;;;;;;;0.50;0.50;;;16.20;99.90;;;;;;5013408;28;20176;-71
2022/09/15 03:59:22;;;;;;;0.30;0.30;;;16.10;99.90;;;;;;5013026;28;20203;-72
2022/09/15 04:01:49;;;;;;;0.40;0.40;;;16.10;99.90;;;;;;5013242;28;20542;-71
2022/09/15 04:04:15;;;;;;;0.40;0.40;;;16.20;99.90;;;;;;5013369;28;20206;-72
2022/09/15 04:06:40;;;;;;;0.70;0.70;;;16.20;99.90;;;;;;5013187;28;20810;-72
2022/09/15 04:09:06;;;;;;;0.67;0.67;;;16.40;99.90;;;;;;5016214;28;20438;-70
2022/09/15 04:11:32;;;;;;;0.50;0.50;;;;;;;;;;5016629;28;20196;-72
2022/09/15 04:13:58;;;;;;;0.80;0.60;;;16.50;99.90;;;;;;5016691;28;20475;-70
2022/09/15 04:16:26;;;;;;;0.40;0.40;;;16.50;99.90;;;;;;5016809;28;20413;-70
2022/09/15 04:18:54;;;;;;;0.80;0.40;;;16.80;99.90;;;;;;5016513;28;20507;-71
2022/09/15 04:21:22;;;;;;;0.90;0.50;;;16.60;99.90;;;;;;5016443;28;20917;-71
2022/09/15 04:23:48;;;;;;;7.13;2.40;;;;;;;;;;5016510;28;20490;-72
2022/09/15 04:26:19;;;;;;;0.60;0.60;;;16.60;99.90;;;;;;5016628;28;20472;-70
2022/09/15 04:28:45;;;;;;;0.40;0.40;;;16.60;99.90;;;;;;5016377;28;20422;-71
2022/09/15 04:31:13;;;;;;;0.40;0.40;;;16.60;99.90;;;;;;5016112;28;20405;-70
2022/09/15 04:33:40;;;;;;;1.60;1.03;;;16.60;99.90;;;;;;5016340;28;20572;-71
2022/09/15 04:36:11;;;;;;;0.60;0.60;;;16.60;99.90;;;;;;5016351;28;20406;-71
2022/09/15 04:38:36;;;;;;;0.43;0.43;;;16.50;99.90;;;;;;5016266;28;20475;-71
2022/09/15 04:41:03;;;;;;;0.50;0.50;;;16.50;99.90;;;;;;5016105;28;20415;-71
2022/09/15 04:43:29;;;;;;;1.30;0.80;;;16.50;99.90;;;;;;5016171;28;20203;-71
2022/09/15 04:45:56;;;;;;;1.70;0.50;;;16.60;99.90;;;;;;5016233;28;20414;-72
2022/09/15 04:48:23;;;;;;;0.83;0.83;;;16.60;99.90;;;;;;5016102;28;20792;-70
2022/09/15 04:50:48;;;;;;;0.50;0.50;;;16.60;99.90;;;;;;5016148;28;20415;-71
2022/09/15 04:53:15;;;;;;;0.40;0.40;;;16.60;99.90;;;;;;5016069;28;20434;-71
2022/09/15 04:55:41;;;;;;;0.40;0.40;;;16.50;99.90;;;;;;5016076;28;20564;-71
2022/09/15 04:58:07;;;;;;;0.40;0.37;;;16.60;99.90;;;;;;5015976;28;20441;-70
2022/09/15 05:00:41;;;;;;;0.63;0.60;;;16.50;99.90;;;;;;5015689;28;20497;-72
2022/09/15 05:03:07;;;;;;;0.70;0.67;;;;;;;;;;5015887;28;20500;-71
2022/09/15 05:05:33;;;;;;;0.50;0.50;;;;;;;;;;5015937;28;20453;-71
2022/09/15 05:07:59;;;;;;;0.60;0.60;;;16.60;99.90;;;;;;5015720;28;20454;-71
2022/09/15 05:10:25;;;;;;;1.03;1.03;;;16.60;99.90;;;;;;5015467;28;20461;-71
2022/09/15 05:12:53;;;;;;;0.40;0.40;;;16.60;99.90;;;;;;5015745;28;20504;-70
2022/09/15 05:15:18;;;;;;;0.70;0.40;;;16.70;99.90;;;;;;5015447;28;20472;-70
2022/09/15 05:17:44;;;;;;;0.50;0.50;;;16.70;99.90;;;;;;5015644;28;20410;-70
2022/09/15 05:20:10;;;;;;;1.13;0.83;;;16.60;99.90;;;;;;5014500;28;20422;-70
2022/09/15 05:22:36;;;;;;;0.60;0.60;;;16.60;99.90;;;;;;5015448;28;20451;-70
2022/09/15 05:25:01;;;;;;;0.40;0.40;;;16.60;99.90;;;;;;5015467;28;20418;-72
2022/09/15 05:27:30;;;;;;;0.40;0.40;;;16.70;99.90;;;;;;5015294;28;20257;-71
2022/09/15 05:29:56;;;;;;;0.30;0.30;;;;;;;;;;5014973;28;20198;-71
2022/09/15 05:32:22;;;;;;;0.30;0.30;;;16.80;99.90;;;;;;5015546;28;20460;-70
2022/09/15 05:34:47;;;;;;;1.77;1.30;;;16.80;99.90;;;;;;5015286;28;20418;-71
2022/09/15 05:37:13;;;;;;;0.80;0.80;;;16.70;99.90;;;;;;5014005;28;20608;-70
2022/09/15 05:39:39;;;;;;;0.50;0.50;;;16.60;99.90;;;;;;5014785;28;20205;-71
2022/09/15 05:42:05;;;;;;;0.53;0.53;;;16.70;99.90;;;;;;5015077;28;20510;-71
2022/09/15 05:44:31;;;;;;;0.60;0.60;;;16.80;99.90;;;;;;5014965;28;20461;-71
2022/09/15 05:46:57;;;;;;;0.73;0.73;;;;;;;;;;5015135;28;20854;-70
2022/09/15 05:49:23;;;;;;;0.33;0.33;;;16.90;99.90;;;;;;5014822;28;20195;-72
2022/09/15 05:51:48;;;;;;;0.30;0.30;;;16.90;99.90;;;;;;5014494;28;20420;-71
2022/09/15 05:54:14;;;;;;;0.60;0.53;;;16.80;99.90;;;;;;5014970;28;20656;-71
2022/09/15 05:56:40;;;;;;;1.10;0.83;;;17.00;99.90;;;;;;5014770;28;20183;-72
2022/09/15 05:59:05;;;;;;;0.60;0.60;;;16.70;99.90;;;;;;5014653;28;20195;-71
2022/09/15 06:01:31;;;;;;;2.60;1.23;;;16.80;99.90;;;;;;5012456;28;20691;-69
2022/09/15 06:03:57;;;;;;;0.47;0.47;;;17.10;99.90;;;;;;5014569;28;20702;-71
2022/09/15 06:06:24;;;;;;;0.40;0.40;;;16.80;99.90;;;;;;5014203;28;20407;-69
2022/09/15 06:08:55;;;;;;;0.40;0.40;;;16.90;99.90;;;;;;5013225;28;20456;-70
2022/09/15 06:11:27;;;;;;;0.50;0.50;;;17.00;99.90;;;;;;5014035;28;20399;-70
2022/09/15 06:13:52;;;;;;;0.97;0.97;;;17.10;99.90;;;;;;5014378;28;20410;-69
2022/09/15 06:16:21;;;;;;;0.50;0.47;;;17.20;99.90;;;;;;5014822;28;20414;-70
2022/09/15 06:18:48;;;;;;;2.40;1.33;;;17.20;99.90;;;;;;5014416;28;20199;-70
2022/09/15 06:21:16;;;;;;;0.70;0.70;;;17.30;99.90;;;;;;5014184;28;20426;-70
2022/09/15 06:23:42;;;;;;;0.43;0.43;;;17.40;99.90;;;;;;5014187;28;20950;-70
2022/09/15 06:26:13;;;;;;;0.50;0.50;;;17.40;99.90;;;;;;5014272;28;20403;-71
2022/09/15 06:28:41;;;;;;;0.80;0.50;;;17.40;99.90;;;;;;5012869;28;20522;-70
2022/09/15 06:31:13;;;;;;;0.40;0.40;;;17.40;99.90;;;;;;5013994;28;20410;-71
2022/09/15 06:33:45;;;;;;;0.43;0.43;;;17.30;99.90;;;;;;5013046;28;20468;-69
2022/09/15 06:36:12;;;;;;;0.43;0.43;;;17.40;99.90;;;;;;5012905;28;20427;-71
2022/09/15 06:38:38;;;;;;;0.40;0.40;;;17.40;99.90;;;;;;5014008;28;20426;-70
2022/09/15 06:41:04;;;;;;;0.50;0.50;;;17.50;99.90;;;;;;5013901;28;20465;-70
2022/09/15 06:43:32;;;;;;;0.63;0.60;;;17.40;99.90;;;;;;5014006;28;20581;-70
2022/09/15 06:46:09;;;;;;;0.73;0.73;;;17.40;99.90;;;;;;5014046;28;20754;-70
2022/09/15 06:48:36;;;;;;;0.70;0.60;;;17.50;99.90;;;;;;5014116;28;20849;-69
2022/09/15 06:51:03;;;;;;;0.40;0.40;;;17.50;99.90;;;;;;5013746;28;20418;-69
2022/09/15 06:53:30;;;;;;;0.50;0.50;;;17.50;99.90;;;;;;5013958;28;20402;-70
2022/09/15 06:56:01;;;;;;;0.40;0.40;;;17.60;99.90;;;;;;5013963;28;20418;-71
2022/09/15 06:58:27;;;;;;;1.27;1.17;;;17.60;99.90;;;;;;5013784;28;20453;-70
2022/09/15 07:00:52;;;;;;;0.50;0.40;;;17.60;99.90;;;;;;5013604;28;20930;-70
2022/09/15 07:03:18;;;;;;;0.60;0.50;;;;;;;;;;5013949;28;20199;-71
2022/09/15 07:05:45;;;;;;;0.40;0.40;;;17.60;99.90;;;;;;5013760;28;20175;-71
2022/09/15 07:08:11;;;;;;;0.60;0.60;;;17.50;99.90;;;;;;5013938;28;20426;-71
2022/09/15 07:10:36;;;;;;;0.80;0.60;;;17.40;99.90;;;;;;5013659;28;20418;-71
2022/09/15 07:13:02;;;;;;;0.70;0.70;;;17.50;99.90;;;;;;5013653;28;20417;-71
2022/09/15 07:15:28;;;;;;;0.93;0.93;;;17.60;99.90;;;;;;5012294;28;20684;-70
2022/09/15 07:17:54;;;;;;;0.30;0.30;;;17.90;99.90;;;;;;5013913;28;20172;-71
2022/09/15 07:20:20;;;;;;;0.70;0.70;;;17.60;99.90;;;;;;5013458;28;20410;-70
2022/09/15 07:22:46;;;;;;;0.50;0.50;;;17.60;99.90;;;;;;5013574;28;20221;-69
2022/09/15 07:25:12;;;;;;;0.40;0.40;;;;;;;;;;5013689;28;20411;-70
2022/09/15 07:27:37;;;;;;;0.30;0.30;;;17.50;99.90;;;;;;5013695;28;20647;-69
2022/09/15 07:30:07;;;;;;;0.60;0.60;;;17.70;99.90;;;;;;5013095;28;20454;-71
2022/09/15 07:32:33;;;;;;;1.30;1.20;;;17.60;99.90;;;;;;5013459;28;20767;-70
2022/09/15 07:34:58;;;;;;;0.50;0.50;;;17.60;99.90;;;;;;5013384;28;20411;-71
2022/09/15 07:37:24;;;;;;;0.70;0.70;;;17.60;99.90;;;;;;5013838;28;20629;-70
2022/09/15 07:39:49;;;;;;;0.47;0.47;;;17.60;99.90;;;;;;5013209;28;20621;-70
2022/09/15 07:42:15;;;;;;;0.87;0.87;;;17.50;99.90;;;;;;5013947;28;20180;-70
2022/09/15 07:44:41;;;;;;;0.80;0.80;;;17.50;99.90;;;;;;5017332;28;20206;-70
2022/09/15 07:47:06;;;;;;;0.40;0.40;;;17.60;99.90;;;;;;5017222;28;20175;-70
2022/09/15 07:49:32;;;;;;;0.90;0.90;;;17.60;99.90;;;;;;5016939;28;20191;-70
2022/09/15 07:51:57;;;;;;;0.40;0.40;;;17.60;99.90;;;;;;5017060;28;20575;-71
2022/09/15 07:54:23;;;;;;;0.40;0.40;;;17.60;99.90;;;;;;5017194;28;20317;-70
2022/09/15 07:56:49;;;;;;;0.70;0.70;;;17.50;99.90;;;;;;5017182;28;20186;-70
2022/09/15 07:59:14;;;;;;;3.30;1.50;;;17.50;99.90;;;;;;5017120;28;20199;-69
2022/09/15 08:01:40;;;;;;;2.40;2.30;;;17.40;99.90;;;;;;5016746;28;20182;-69
2022/09/15 08:04:05;;;;;;;0.80;0.80;;;17.40;99.90;;;;;;5016834;28;20211;-71
2022/09/15 08:06:31;;;;;;;1.47;1.13;;;17.40;99.90;;;;;;5016905;28;20172;-70
2022/09/15 08:08:57;;;;;;;3.13;1.03;;;17.20;99.90;;;;;;5016806;28;20557;-70
2022/09/15 08:11:22;;;;;;;3.30;1.17;;;17.30;99.90;;;;;;5016784;28;20172;-69
2022/09/15 08:13:50;;;;;;;1.93;0.73;;;17.30;99.90;;;;;;5016748;28;20182;-71
2022/09/15 08:16:18;;;;;;;0.70;0.70;;;17.40;99.90;;;;;;5017107;28;20203;-70
2022/09/15 08:18:44;;;;;;;0.80;0.80;;;17.40;99.90;;;;;;5016519;28;20930;-70
2022/09/15 08:21:15;;;;;;;0.50;0.50;;;17.50;99.90;;;;;;5016469;28;20414;-71
2022/09/15 08:23:41;;;;;;;1.33;0.90;;;17.70;99.90;;;;;;5016703;28;20203;-71
2022/09/15 08:26:09;;;;;;;1.13;1.13;;;17.60;99.90;;;;;;5016715;28;20814;-71
2022/09/15 08:28:35;;;;;;;0.70;0.63;;;17.60;99.90;;;;;;5016518;28;20426;-70
2022/09/15 08:31:02;;;;;;;0.40;0.40;;;17.60;99.90;;;;;;5016295;28;20498;-70
2022/09/15 08:33:29;;;;;;;0.40;0.40;;;17.70;99.90;;;;;;5016543;28;20438;-69
2022/09/15 08:36:00;;;;;;;0.40;0.40;;;17.80;99.90;;;;;;5016390;28;20407;-71
2022/09/15 08:38:26;;;;;;;0.50;0.50;;;17.90;99.90;;;;;;5016291;28;20529;-70
2022/09/15 08:41:01;;;;;;;0.40;0.40;;;17.80;99.90;;;;;;5016062;28;20502;-69
2022/09/15 08:43:34;;;;;;;0.97;0.53;;;17.80;99.90;;;;;;5014918;28;20645;-70
2022/09/15 08:46:04;;;;;;;0.37;0.37;;;17.80;99.90;;;;;;5016545;28;20494;-70
2022/09/15 08:48:42;;;;;;;1.13;0.60;;;17.80;99.90;;;;;;5016161;28;20441;-70
2022/09/15 08:51:18;;;;;;;0.53;0.50;;;17.60;99.90;;;;;;5015925;28;20386;-70
2022/09/15 08:53:54;;;;;;;0.33;0.33;;;17.50;99.90;;;;;;5015126;28;20417;-71
2022/09/15 08:56:21;;;;;;;0.40;0.40;;;17.40;99.90;;;;;;5015986;28;20777;-70
2022/09/15 08:58:47;;;;;;;0.30;0.30;;;17.30;99.90;;;;;;5016015;28;20476;-70
2022/09/15 09:01:21;;;;;;;0.50;0.50;;;17.30;99.90;;;;;;5015816;28;20453;-71
2022/09/15 09:03:47;;;;;;;0.67;0.67;;;17.40;99.90;;;;;;5015947;28;20485;-70
2022/09/15 09:06:34;;;;;;;0.40;0.40;;;17.40;99.90;;;;;;5015713;28;20449;-71
2022/09/15 09:09:04;;;;;;;0.40;0.40;;;17.40;99.90;;;;;;5015639;28;20192;-69
2022/09/15 09:11:53;;;;;;;0.40;0.40;;;17.50;99.90;;;;;;5015543;28;20415;-70
2022/09/15 09:14:51;;;;;;;1.23;0.70;;;17.40;99.90;;;;;;5015542;28;20441;-71
2022/09/15 09:18:00;;;;;;;0.87;0.87;;;17.60;99.90;;;;;;5015917;28;20403;-71
2022/09/15 09:20:36;;;;;;;2.80;1.53;;;17.50;99.90;;;;;;5015274;28;20445;-71
2022/09/15 09:23:07;;;;;;;3.80;1.33;;;17.50;99.90;;;;;;5015367;28;20461;-70
2022/09/15 09:25:34;;;;;;;0.87;0.77;;;17.70;99.90;;;;;;5015425;28;20399;-71
2022/09/15 09:28:01;;;;;;;0.43;0.43;;;17.70;99.90;;;;;;5015449;28;20431;-71
2022/09/15 09:30:29;;;;;;;0.40;0.40;;;18.00;99.90;;;;;;5015102;28;20425;-70
2022/09/15 09:33:14;;;;;;;2.20;0.70;;;18.10;99.90;;;;;;5015356;28;20498;-70
2022/09/15 09:35:51;;;;;;;0.40;0.40;;;18.00;99.90;;;;;;5015303;28;20506;-70
2022/09/15 09:38:26;;;;;;;0.60;0.60;;;17.90;99.90;;;;;;5015637;28;20945;-69
2022/09/15 09:40:52;;;;;;;0.40;0.40;;;18.30;99.90;;;;;;5015020;28;20431;-71
2022/09/15 09:43:18;;;;;;;0.40;0.40;;;18.00;99.90;;;;;;5013856;28;20966;-70
2022/09/15 09:45:44;;;;;;;0.30;0.30;;;17.80;99.90;;;;;;5015415;28;20421;-71
2022/09/15 09:48:23;;;;;;;0.40;0.40;;;18.10;99.90;;;;;;5014875;28;20835;-71
2022/09/15 09:50:49;;;;;;;0.63;0.63;;;18.00;99.90;;;;;;5014738;28;20954;-71
2022/09/15 09:53:47;;;;;;;0.40;0.40;;;17.90;99.90;;;;;;5015035;28;20403;-71
2022/09/15 09:56:24;;;;;;;1.33;0.60;;;18.00;99.90;;;;;;5008995;28;20430;-72
2022/09/15 09:58:51;;;;;;;0.30;0.30;;;17.80;99.90;;;;;;5014812;28;20948;-70
2022/09/15 10:01:19;;;;;;;0.40;0.40;;;17.70;99.90;;;;;;5014917;28;20883;-69
2022/09/15 10:03:45;;;;;;;0.67;0.67;;;17.70;99.90;;;;;;5015108;28;20517;-71
2022/09/15 10:06:32;;;;;;;0.40;0.40;;;17.80;99.90;;;;;;5014754;28;20409;-71
2022/09/15 10:09:04;;;;;;;0.30;0.30;;;18.00;99.90;;;;;;5014841;28;20771;-70
2022/09/15 10:11:53;;;;;;;0.40;0.40;;;18.10;99.90;;;;;;5014733;28;20402;-70
2022/09/15 10:14:35;;;;;;;0.50;0.50;;;18.10;99.90;;;;;;5014734;28;20423;-70
2022/09/15 10:17:06;;;;;;;0.60;0.53;;;18.20;99.90;;;;;;5014714;28;20432;-70
2022/09/15 10:19:42;;;;;;;0.50;0.40;;;18.30;99.90;;;;;;5014699;28;20430;-71
2022/09/15 10:22:08;;;;;;;0.50;0.40;;;18.30;99.90;;;;;;5014387;28;20776;-71
2022/09/15 10:24:37;;;;;;;0.87;0.87;;;18.30;99.90;;;;;;5014755;28;20508;-71
2022/09/15 10:27:25;;;;;;;0.40;0.40;;;18.40;99.90;;;;;;5014729;28;20398;-71
2022/09/15 10:29:50;;;;;;;0.40;0.40;;;17.90;99.90;;;;;;5011588;28;20438;-71
2022/09/15 10:32:27;;;;;;;0.30;0.30;;;18.10;99.90;;;;;;5012890;28;20418;-71
2022/09/15 10:35:17;;;;;;;0.30;0.30;;;18.10;99.90;;;;;;5014408;28;20522;-70
2022/09/15 10:38:04;;;;;;;0.60;0.60;;;18.20;99.90;;;;;;5014242;28;20410;-70
2022/09/15 10:40:33;;;;;;;0.30;0.30;;;18.00;99.90;;;;;;5014194;28;20437;-71
2022/09/15 10:43:29;;;;;;;0.87;0.80;;;17.30;99.90;;;;;;5014007;28;20506;-71
2022/09/15 10:46:26;;;;;;;0.53;0.40;;;17.30;99.90;;;;;;5014185;28;20406;-71
2022/09/15 10:49:21;;;;;;;0.40;0.40;;;17.40;99.90;;;;;;5013929;28;20437;-70
2022/09/15 10:52:15;;;;;;;0.30;0.30;;;17.40;99.90;;;;;;5012717;28;20489;-70
2022/09/15 10:54:47;;;;;;;0.30;0.30;;;17.40;99.90;;;;;;5013872;28;20402;-70
2022/09/15 10:57:21;;;;;;;0.40;0.37;;;17.40;99.90;;;;;;5014090;28;20914;-69
2022/09/15 11:00:01;;;;;;;0.47;0.40;;;17.60;99.90;;;;;;5013596;28;20433;-71
2022/09/15 11:02:33;;;;;;;0.50;0.50;;;17.60;99.90;;;;;;5013954;28;20409;-70
2022/09/15 11:05:09;;;;;;;0.37;0.37;;;17.50;99.90;;;;;;5013901;28;20453;-71
2022/09/15 11:08:04;;;;;;;0.40;0.40;;;17.90;99.90;;;;;;5013812;28;20486;-70
2022/09/15 11:11:02;;;;;;;0.30;0.30;;;18.10;99.90;;;;;;4999602;28;20427;-71
2022/09/15 11:13:45;;;;;;;0.50;0.50;;;18.20;99.90;;;;;;5013643;28;20410;-70
2022/09/15 11:16:23;;;;;;;0.50;0.50;;;18.10;99.90;;;;;;5013751;28;20561;-71
2022/09/15 11:19:06;;;;;;;0.73;0.73;;;18.20;99.90;;;;;;5016731;28;20449;-70
2022/09/15 11:21:42;;;;;;;1.40;0.73;;;18.10;99.90;;;;;;5017474;28;20402;-71
2022/09/15 11:24:26;;;;;;;0.43;0.43;;;18.10;99.90;;;;;;5017585;28;20547;-70
2022/09/15 11:27:35;;;;;;;0.80;0.80;;;18.00;99.90;;;;;;5017732;28;20839;-70
2022/09/15 11:30:06;;;;;;;0.77;0.50;;;17.90;99.90;;;;;;4991467;28;20869;-71
2022/09/15 11:32:45;;;;;;;0.40;0.40;;;17.90;99.90;;;;;;5017894;28;20411;-71
2022/09/15 11:35:34;;;;;;;0.97;0.37;;;17.90;99.90;;;;;;5017509;28;20469;-71
2022/09/15 11:38:41;;;;;;;0.50;0.50;;;18.10;99.90;;;;;;5017524;28;20879;-72
2022/09/15 11:41:17;;;;;;;0.40;0.40;;;18.00;99.90;;;;;;5017174;28;20414;-71
2022/09/15 11:44:00;;;;;;;0.43;0.43;;;17.90;99.90;;;;;;5017281;28;20457;-71
2022/09/15 11:46:42;;;;;;;0.57;0.40;;;17.60;99.90;;;;;;5015508;28;20410;-69
2022/09/15 11:49:17;;;;;;;0.43;0.43;;;18.00;99.90;;;;;;5015747;28;20437;-71
2022/09/15 11:51:51;;;;;;;0.70;0.70;;;17.80;99.90;;;;;;5017111;28;20418;-69
2022/09/15 11:54:28;;;;;;;4.77;1.03;;;17.70;99.90;;;;;;5017340;28;20549;-71
2022/09/15 11:56:55;;;;;;;0.40;0.40;;;17.80;99.90;;;;;;5017206;28;20402;-70
2022/09/15 11:59:49;;;;;;;0.40;0.40;;;17.80;99.90;;;;;;5016959;28;20484;-70
2022/09/15 12:02:29;;;;;;;0.40;0.40;;;17.80;99.90;;;;;;5017073;28;20460;-70
2022/09/15 12:05:08;;;;;;;0.30;0.30;;;17.90;99.90;;;;;;5017023;28;20458;-71
2022/09/15 12:07:51;;;;;;;0.70;0.40;;;18.00;99.90;;;;;;5017033;28;20410;-70
2022/09/15 12:10:22;;;;;;;0.40;0.40;;;18.00;99.90;;;;;;5016655;28;20414;-70
2022/09/15 12:12:50;;;;;;;0.73;0.70;;;17.90;99.90;;;;;;5016838;28;20469;-72
2022/09/15 12:15:18;;;;;;;0.57;0.57;;;17.90;99.90;;;;;;5016560;28;20488;-70
2022/09/15 12:18:06;;;;;;;3.40;0.50;;;17.70;99.90;;;;;;5016730;28;20402;-71
2022/09/15 12:20:54;;;;;;;0.60;0.50;;;17.90;99.90;;;;;;5016547;28;20852;-71
2022/09/15 12:23:28;;;;;;;0.50;0.50;;;18.00;99.90;;;;;;5016663;28;20445;-70
2022/09/15 12:26:07;;;;;;;0.40;0.40;;;18.20;99.90;;;;;;5016766;28;20395;-70
2022/09/15 12:28:49;;;;;;;0.30;0.30;;;18.10;99.90;;;;;;5016321;28;20421;-71
2022/09/15 12:31:37;;;;;;;0.57;0.57;;;18.30;99.90;;;;;;5016449;28;20959;-71
2022/09/15 12:34:24;;;;;;;0.40;0.40;;;18.40;99.90;;;;;;5016590;28;20419;-71
2022/09/15 12:36:52;;;;;;;0.50;0.50;;;18.20;99.90;;;;;;5016328;28;20399;-70
2022/09/15 12:39:20;;;;;;;0.47;0.47;;;18.30;99.90;;;;;;5016186;28;20428;-71
2022/09/15 12:41:48;;;;;;;0.40;0.40;;;18.90;99.90;;;;;;5015994;28;20411;-70
2022/09/15 12:44:56;;;;;;;0.53;0.50;;;18.50;99.90;;;;;;5016295;28;20443;-71
2022/09/15 12:47:47;;;;;;;1.13;0.73;;;18.60;99.90;;;;;;4936581;29;20485;-69
2022/09/15 12:50:13;;;;;;;0.40;0.40;;;18.60;99.90;;;;;;4936412;29;20897;-70
2022/09/15 12:53:06;;;;;;;1.10;1.03;;;18.70;99.90;;;;;;4987204;28;20428;-70
2022/09/15 12:55:35;;;;;;;0.50;0.50;;;18.80;99.90;;;;;;5015318;28;20193;-70
2022/09/15 12:58:08;;;;;;;0.63;0.63;;;19.00;99.90;;;;;;5015835;28;20406;-71
2022/09/15 13:00:43;;;;;;;0.47;0.47;;;19.10;99.90;;;;;;5015647;28;20418;-71
2022/09/15 13:03:48;;;;;;;0.53;0.53;;;19.00;99.90;;;;;;5015938;28;20457;-70
2022/09/15 13:06:34;;;;;;;4.63;1.30;;;19.10;99.90;;;;;;5015633;28;20410;-70
2022/09/15 13:09:03;;;;;;;0.50;0.50;;;19.10;99.90;;;;;;5015892;28;20431;-71
2022/09/15 13:11:37;;;;;;;0.50;0.50;;;19.40;99.90;;;;;;5015626;28;20839;-72
2022/09/15 13:14:03;;;;;;;0.87;0.87;;;19.60;99.90;;;;;;5015663;28;20440;-70
2022/09/15 13:16:42;;;;;;;0.40;0.40;;;19.90;99.90;;;;;;5015809;28;20443;-71